createdAt,value
2017-11-23T00:00:55.305Z,0
2017-11-23T00:02:04.134Z,0
2017-11-23T00:03:13.115Z,0
2017-11-23T00:04:21.944Z,0
2017-11-23T00:05:30.774Z,0
2017-11-23T00:06:39.610Z,0
2017-11-23T00:07:48.434Z,0
2017-11-23T00:08:57.460Z,0
2017-11-23T00:10:06.291Z,0
2017-11-23T00:11:15.117Z,0
2017-11-23T00:12:23.946Z,0
2017-11-23T00:13:32.776Z,0
2017-11-23T00:14:41.759Z,0
2017-11-23T00:15:50.581Z,0
2017-11-23T00:16:59.409Z,0
2017-11-23T00:18:08.237Z,0
2017-11-23T00:19:17.361Z,0
2017-11-23T00:20:26.192Z,0
2017-11-23T00:21:35.013Z,0
2017-11-23T00:22:43.890Z,0
2017-11-23T00:23:52.720Z,0
2017-11-23T00:25:01.550Z,0
2017-11-23T00:26:10.528Z,0
2017-11-23T00:27:19.356Z,0
2017-11-23T00:28:28.188Z,0
2017-11-23T00:29:37.017Z,0
2017-11-23T00:30:45.849Z,0
2017-11-23T00:31:54.829Z,0
2017-11-23T00:33:03.661Z,0
2017-11-23T00:34:12.491Z,0
2017-11-23T00:35:21.325Z,0
2017-11-23T00:36:30.153Z,0
2017-11-23T00:37:38.983Z,0
2017-11-23T00:38:47.811Z,0
2017-11-23T00:39:56.641Z,0
2017-11-23T00:41:05.476Z,0
2017-11-23T00:42:14.306Z,0
2017-11-23T00:43:23.136Z,0
2017-11-23T00:44:32.241Z,0
2017-11-23T00:45:41.351Z,0
2017-11-23T00:46:50.181Z,0
2017-11-23T00:47:59.009Z,0
2017-11-23T00:49:07.837Z,0
2017-11-23T00:50:16.666Z,0
2017-11-23T00:51:25.495Z,0
2017-11-23T00:52:34.609Z,0
2017-11-23T00:53:43.441Z,0
2017-11-23T00:54:52.370Z,0
2017-11-23T00:56:01.198Z,0
2017-11-23T00:57:10.029Z,0
2017-11-23T00:58:18.858Z,0
2017-11-23T00:59:27.688Z,0
2017-11-23T01:00:36.514Z,0
2017-11-23T01:01:45.344Z,0
2017-11-23T01:02:54.174Z,0
2017-11-23T01:04:03.007Z,0
2017-11-23T01:05:11.835Z,0
2017-11-23T01:06:21.165Z,0
2017-11-23T01:07:29.995Z,0
2017-11-23T01:08:38.826Z,0
2017-11-23T01:09:47.936Z,0
2017-11-23T01:10:56.765Z,0
2017-11-23T01:12:05.596Z,0
2017-11-23T01:13:14.425Z,0
2017-11-23T01:14:23.253Z,0
2017-11-23T01:15:32.080Z,0
2017-11-23T01:16:40.912Z,0
2017-11-23T01:17:49.939Z,0
2017-11-23T01:18:58.764Z,0
2017-11-23T01:20:07.593Z,0
2017-11-23T01:21:16.430Z,0
2017-11-23T01:22:25.252Z,0
2017-11-23T01:23:34.476Z,0
2017-11-23T01:24:43.299Z,0
2017-11-23T01:25:52.406Z,0
2017-11-23T01:27:01.235Z,0
2017-11-23T01:28:10.064Z,0
2017-11-23T01:31:27.233Z,0
2017-11-23T01:32:36.062Z,0
2017-11-23T01:33:44.899Z,0
2017-11-23T01:34:53.721Z,0
2017-11-23T01:36:02.549Z,0
2017-11-23T01:37:11.656Z,0
2017-11-23T01:38:20.487Z,0
2017-11-23T01:39:29.315Z,0
2017-11-23T01:40:38.198Z,0
2017-11-23T01:41:47.026Z,0
2017-11-23T01:42:55.855Z,0
2017-11-23T01:44:04.689Z,0
2017-11-23T01:45:13.519Z,0
2017-11-23T01:46:22.745Z,0
2017-11-23T01:47:31.575Z,0
2017-11-23T01:48:40.405Z,0
2017-11-23T01:49:49.231Z,0
2017-11-23T01:50:58.058Z,0
2017-11-23T01:52:07.038Z,0
2017-11-23T01:53:16.166Z,0
2017-11-23T01:54:25.253Z,0
2017-11-23T01:55:34.081Z,0
2017-11-23T01:56:42.909Z,0
2017-11-23T01:57:52.041Z,0
2017-11-23T01:59:00.867Z,0
2017-11-23T02:00:09.698Z,0
2017-11-23T02:01:18.525Z,0
2017-11-23T02:02:27.354Z,0
2017-11-23T02:03:36.487Z,0
2017-11-23T02:04:45.315Z,0
2017-11-23T02:05:54.145Z,0
2017-11-23T02:07:02.987Z,0
2017-11-23T02:08:12.379Z,0
2017-11-23T02:09:21.307Z,0
2017-11-23T02:10:30.136Z,0
2017-11-23T02:11:38.964Z,0
2017-11-23T02:12:47.793Z,0
2017-11-23T02:13:56.624Z,0
2017-11-23T02:15:05.601Z,0
2017-11-23T02:16:14.435Z,0
2017-11-23T02:17:23.265Z,0
2017-11-23T02:18:32.093Z,0
2017-11-23T02:19:40.920Z,0
2017-11-23T02:20:49.749Z,0
2017-11-23T02:21:58.874Z,0
2017-11-23T02:23:07.701Z,0
2017-11-23T02:24:16.530Z,0
2017-11-23T02:25:25.372Z,0
2017-11-23T02:26:34.390Z,0
2017-11-23T02:27:43.219Z,0
2017-11-23T02:28:52.055Z,0
2017-11-23T02:30:01.090Z,0
2017-11-23T02:31:10.472Z,0
2017-11-23T02:32:19.451Z,0
2017-11-23T02:33:28.281Z,0
2017-11-23T02:34:37.112Z,0
2017-11-23T02:35:45.943Z,0
2017-11-23T02:36:54.771Z,0
2017-11-23T02:38:03.935Z,0
2017-11-23T02:39:13.329Z,0
2017-11-23T02:40:22.158Z,0
2017-11-23T02:41:30.993Z,0
2017-11-23T02:42:40.100Z,0
2017-11-23T02:43:48.980Z,0
2017-11-23T02:44:57.811Z,0
2017-11-23T02:46:06.642Z,0
2017-11-23T02:47:15.472Z,0
2017-11-23T02:48:24.307Z,0
2017-11-23T02:49:33.131Z,0
2017-11-23T02:50:41.960Z,0
2017-11-23T02:51:50.788Z,0
2017-11-23T02:52:59.620Z,0
2017-11-23T02:54:08.448Z,0
2017-11-23T02:55:17.528Z,0
2017-11-23T02:56:26.358Z,0
2017-11-23T02:57:35.187Z,0
2017-11-23T02:58:44.017Z,0
2017-11-23T02:59:52.845Z,0
2017-11-23T03:01:01.725Z,0
2017-11-23T03:02:10.885Z,0
2017-11-23T03:03:19.716Z,0
2017-11-23T03:04:28.545Z,0
2017-11-23T03:05:37.374Z,0
2017-11-23T03:06:46.201Z,0
2017-11-23T03:07:55.030Z,0
2017-11-23T03:09:03.859Z,0
2017-11-23T03:10:12.687Z,0
2017-11-23T03:11:53.952Z,0
2017-11-23T03:13:02.782Z,0
2017-11-23T03:14:11.612Z,0
2017-11-23T03:15:20.440Z,0
2017-11-23T03:16:29.268Z,0
2017-11-23T03:17:38.400Z,0
2017-11-23T03:18:47.229Z,0
2017-11-23T03:19:56.059Z,0
2017-11-23T03:21:04.888Z,0
2017-11-23T03:22:13.716Z,0
2017-11-23T03:23:22.649Z,0
2017-11-23T03:24:31.481Z,0
2017-11-23T03:25:40.311Z,0
2017-11-23T03:26:49.140Z,0
2017-11-23T03:27:57.970Z,0
2017-11-23T03:29:07.090Z,0
2017-11-23T03:30:15.918Z,0
2017-11-23T03:31:25.025Z,0
2017-11-23T03:32:33.855Z,0
2017-11-23T03:33:42.685Z,0
2017-11-23T03:34:51.915Z,0
2017-11-23T03:36:00.743Z,0
2017-11-23T03:37:09.574Z,0
2017-11-23T03:38:18.401Z,0
2017-11-23T03:39:27.230Z,0
2017-11-23T03:40:36.060Z,0
2017-11-23T03:41:44.889Z,0
2017-11-23T03:42:53.717Z,0
2017-11-23T03:44:02.547Z,0
2017-11-23T03:45:11.652Z,0
2017-11-23T03:46:20.784Z,0
2017-11-23T03:47:29.892Z,0
2017-11-23T03:48:38.719Z,0
2017-11-23T03:49:47.547Z,0
2017-11-23T03:50:56.377Z,0
2017-11-23T03:52:05.356Z,0
2017-11-23T03:53:14.184Z,0
2017-11-23T03:54:23.013Z,0
2017-11-23T03:55:32.122Z,0
2017-11-23T03:56:40.952Z,0
2017-11-23T03:57:49.932Z,0
2017-11-23T03:58:58.759Z,0
2017-11-23T04:00:07.588Z,0
2017-11-23T04:01:16.707Z,0
2017-11-23T04:02:25.521Z,0
2017-11-23T04:03:34.399Z,0
2017-11-23T04:04:43.228Z,0
2017-11-23T04:05:52.058Z,0
2017-11-23T04:07:00.886Z,0
2017-11-23T04:08:09.716Z,0
2017-11-23T04:09:18.843Z,0
2017-11-23T04:10:27.672Z,0
2017-11-23T04:11:36.502Z,0
2017-11-23T04:12:45.328Z,0
2017-11-23T04:13:54.156Z,0
2017-11-23T04:15:03.136Z,0
2017-11-23T04:16:11.971Z,0
2017-11-23T04:17:20.797Z,0
2017-11-23T04:18:29.913Z,0
2017-11-23T04:19:38.739Z,0
2017-11-23T04:20:47.616Z,0
2017-11-23T04:21:56.463Z,0
2017-11-23T04:23:05.558Z,0
2017-11-23T04:24:14.381Z,0
2017-11-23T04:25:23.210Z,0
2017-11-23T04:26:32.038Z,0
2017-11-23T04:27:40.868Z,0
2017-11-23T04:28:49.703Z,0
2017-11-23T04:29:58.975Z,0
2017-11-23T04:31:07.807Z,0
2017-11-23T04:32:16.781Z,0
2017-11-23T04:33:25.611Z,0
2017-11-23T04:34:34.441Z,0
2017-11-23T04:35:43.552Z,0
2017-11-23T04:36:52.666Z,0
2017-11-23T04:38:01.543Z,0
2017-11-23T04:39:10.374Z,0
2017-11-23T04:40:19.202Z,0
2017-11-23T04:41:28.312Z,0
2017-11-23T04:42:37.138Z,0
2017-11-23T04:43:45.966Z,0
2017-11-23T04:44:54.795Z,0
2017-11-23T04:46:03.627Z,0
2017-11-23T04:47:12.456Z,0
2017-11-23T04:48:21.285Z,0
2017-11-23T04:49:30.212Z,0
2017-11-23T04:50:39.324Z,0
2017-11-23T04:51:48.154Z,0
2017-11-23T04:52:56.983Z,0
2017-11-23T04:54:05.812Z,0
2017-11-23T04:55:14.689Z,0
2017-11-23T04:56:23.516Z,0
2017-11-23T04:57:32.345Z,0
2017-11-23T04:58:41.174Z,0
2017-11-23T04:59:50.003Z,0
2017-11-23T05:00:58.928Z,0
2017-11-23T05:02:07.756Z,0
2017-11-23T05:03:16.586Z,0
2017-11-23T05:04:25.413Z,0
2017-11-23T05:05:34.241Z,0
2017-11-23T05:06:43.357Z,0
2017-11-23T05:07:52.189Z,0
2017-11-23T05:09:01.014Z,0
2017-11-23T05:10:09.846Z,0
2017-11-23T05:11:18.678Z,0
2017-11-23T05:12:27.657Z,0
2017-11-23T05:13:36.484Z,0
2017-11-23T05:14:45.591Z,0
2017-11-23T05:15:54.417Z,0
2017-11-23T05:17:03.247Z,0
2017-11-23T05:18:12.174Z,0
2017-11-23T05:19:21.002Z,0
2017-11-23T05:20:29.832Z,0
2017-11-23T05:21:38.678Z,0
2017-11-23T05:22:47.488Z,0
2017-11-23T05:23:56.468Z,0
2017-11-23T05:25:05.294Z,0
2017-11-23T05:26:14.125Z,0
2017-11-23T05:27:22.955Z,0
2017-11-23T05:28:31.783Z,0
2017-11-23T05:29:40.711Z,0
2017-11-23T05:30:49.542Z,0
2017-11-23T05:31:58.371Z,0
2017-11-23T05:33:07.206Z,0
2017-11-23T05:34:16.031Z,0
2017-11-23T05:35:25.011Z,0
2017-11-23T05:36:33.839Z,0
2017-11-23T05:37:42.667Z,0
2017-11-23T05:38:51.495Z,0
2017-11-23T05:40:00.328Z,0
2017-11-23T05:41:09.206Z,0
2017-11-23T05:42:18.033Z,0
2017-11-23T05:43:26.864Z,0
2017-11-23T05:44:35.691Z,0
2017-11-23T05:45:44.524Z,0
2017-11-23T05:46:53.507Z,0
2017-11-23T05:48:02.337Z,0
2017-11-23T05:49:11.167Z,0
2017-11-23T05:50:19.997Z,0
2017-11-23T05:51:28.829Z,0
2017-11-23T05:52:37.936Z,0
2017-11-23T05:53:46.766Z,0
2017-11-23T05:54:55.593Z,0
2017-11-23T05:56:04.426Z,0
2017-11-23T05:57:13.257Z,0
2017-11-23T05:58:22.381Z,0
2017-11-23T05:59:31.212Z,0
2017-11-23T06:00:40.043Z,0
2017-11-23T06:01:49.438Z,0
2017-11-23T06:02:58.558Z,0
2017-11-23T06:04:07.816Z,0
2017-11-23T06:05:16.648Z,0
2017-11-23T06:06:25.476Z,0
2017-11-23T06:07:34.306Z,0
2017-11-23T06:08:43.135Z,0
2017-11-23T06:09:52.115Z,0
2017-11-23T06:11:01.228Z,0
2017-11-23T06:12:10.338Z,0
2017-11-23T06:13:19.169Z,0
2017-11-23T06:14:28.000Z,0
2017-11-23T06:15:36.881Z,0
2017-11-23T06:16:45.717Z,0
2017-11-23T06:17:54.829Z,0
2017-11-23T06:19:03.757Z,0
2017-11-23T06:20:12.585Z,0
2017-11-23T06:21:21.798Z,0
2017-11-23T06:22:30.629Z,0
2017-11-23T06:23:39.458Z,0
2017-11-23T06:24:48.572Z,0
2017-11-23T06:25:57.403Z,0
2017-11-23T06:27:06.241Z,0
2017-11-23T06:28:15.074Z,0
2017-11-23T06:29:23.911Z,0
2017-11-23T06:30:32.737Z,0
2017-11-23T06:31:41.569Z,0
2017-11-23T06:32:50.398Z,0
2017-11-23T06:33:59.513Z,0
2017-11-23T06:35:08.344Z,0
2017-11-23T06:36:17.173Z,4
2017-11-23T06:37:26.003Z,4
2017-11-23T06:38:34.882Z,0
2017-11-23T06:39:43.713Z,4
2017-11-23T06:40:52.541Z,4
2017-11-23T06:42:01.372Z,4
2017-11-23T06:43:10.201Z,8
2017-11-23T06:44:19.414Z,8
2017-11-23T06:45:28.250Z,8
2017-11-23T06:46:37.366Z,12
2017-11-23T06:47:46.194Z,12
2017-11-23T06:48:55.026Z,16
2017-11-23T06:50:04.108Z,16
2017-11-23T06:51:12.937Z,20
2017-11-23T06:52:21.768Z,20
2017-11-23T06:53:30.597Z,24
2017-11-23T06:54:39.426Z,28
2017-11-23T06:55:48.584Z,32
2017-11-23T06:56:57.696Z,36
2017-11-23T06:58:06.811Z,40
2017-11-23T06:59:15.917Z,48
2017-11-23T07:00:24.747Z,52
2017-11-23T07:01:33.731Z,56
2017-11-23T07:02:42.556Z,56
2017-11-23T07:03:51.383Z,60
2017-11-23T07:05:00.212Z,64
2017-11-23T07:06:09.042Z,68
2017-11-23T07:07:18.122Z,72
2017-11-23T07:08:26.951Z,76
2017-11-23T07:09:35.781Z,76
2017-11-23T07:10:44.614Z,84
2017-11-23T07:11:53.445Z,80
2017-11-23T07:13:02.276Z,84
2017-11-23T07:14:11.106Z,88
2017-11-23T07:15:19.938Z,96
2017-11-23T07:16:29.044Z,104
2017-11-23T07:17:37.872Z,112
2017-11-23T07:18:46.854Z,116
2017-11-23T07:19:55.685Z,124
2017-11-23T07:21:04.519Z,136
2017-11-23T07:22:13.349Z,140
2017-11-23T07:23:22.177Z,136
2017-11-23T07:24:31.310Z,136
2017-11-23T07:25:40.143Z,140
2017-11-23T07:26:48.973Z,148
2017-11-23T07:27:57.804Z,160
2017-11-23T07:29:06.640Z,180
2017-11-23T07:30:15.614Z,188
2017-11-23T07:31:24.730Z,204
2017-11-23T07:32:33.560Z,232
2017-11-23T07:33:42.387Z,240
2017-11-23T07:34:51.219Z,232
2017-11-23T07:36:00.247Z,236
2017-11-23T07:37:09.078Z,236
2017-11-23T07:38:17.909Z,244
2017-11-23T07:39:26.741Z,248
2017-11-23T07:40:35.571Z,260
2017-11-23T07:41:44.451Z,284
2017-11-23T07:42:53.279Z,308
2017-11-23T07:44:02.109Z,336
2017-11-23T07:45:10.940Z,360
2017-11-23T07:46:19.770Z,380
2017-11-23T07:47:28.749Z,420
2017-11-23T07:48:37.580Z,460
2017-11-23T07:49:46.411Z,488
2017-11-23T07:50:55.245Z,512
2017-11-23T07:52:04.077Z,504
2017-11-23T07:53:13.005Z,472
2017-11-23T07:54:21.842Z,484
2017-11-23T07:55:30.668Z,496
2017-11-23T07:56:39.500Z,480
2017-11-23T07:57:48.330Z,480
2017-11-23T07:58:57.260Z,440
2017-11-23T08:00:06.099Z,404
2017-11-23T08:01:14.921Z,368
2017-11-23T08:02:23.751Z,344
2017-11-23T08:03:32.589Z,280
2017-11-23T08:04:41.415Z,236
2017-11-23T08:05:50.246Z,220
2017-11-23T08:06:59.076Z,224
2017-11-23T08:08:07.907Z,244
2017-11-23T08:09:16.737Z,280
2017-11-23T08:10:25.618Z,320
2017-11-23T08:11:34.449Z,348
2017-11-23T08:12:43.283Z,316
2017-11-23T08:13:52.116Z,296
2017-11-23T08:15:00.949Z,328
2017-11-23T08:16:09.931Z,364
2017-11-23T08:17:18.756Z,340
2017-11-23T08:18:27.591Z,324
2017-11-23T08:19:36.420Z,336
2017-11-23T08:20:45.252Z,360
2017-11-23T08:21:54.085Z,356
2017-11-23T08:23:03.193Z,300
2017-11-23T08:24:12.025Z,320
2017-11-23T08:25:20.857Z,332
2017-11-23T08:26:29.686Z,392
2017-11-23T08:27:38.667Z,396
2017-11-23T08:28:47.498Z,360
2017-11-23T08:29:56.327Z,368
2017-11-23T08:31:05.435Z,384
2017-11-23T08:32:14.266Z,416
2017-11-23T08:33:23.147Z,464
2017-11-23T08:34:31.975Z,528
2017-11-23T08:35:40.807Z,600
2017-11-23T08:36:49.640Z,716
2017-11-23T08:37:58.473Z,792
2017-11-23T08:39:07.302Z,892
2017-11-23T08:40:16.136Z,992
2017-11-23T08:41:24.967Z,1220
2017-11-23T08:42:34.083Z,1252
2017-11-23T08:43:42.917Z,1232
2017-11-23T08:44:51.796Z,1044
2017-11-23T08:46:00.912Z,804
2017-11-23T08:47:10.027Z,684
2017-11-23T08:48:18.856Z,716
2017-11-23T08:49:27.688Z,720
2017-11-23T08:50:36.671Z,756
2017-11-23T08:51:45.502Z,812
2017-11-23T08:52:54.331Z,840
2017-11-23T08:54:03.159Z,884
2017-11-23T08:55:11.989Z,924
2017-11-23T08:56:20.919Z,924
2017-11-23T08:57:29.748Z,928
2017-11-23T08:58:38.578Z,932
2017-11-23T08:59:47.409Z,944
2017-11-23T09:00:56.240Z,956
2017-11-23T09:02:05.175Z,964
2017-11-23T09:03:14.009Z,964
2017-11-23T09:04:22.839Z,968
2017-11-23T09:05:31.669Z,972
2017-11-23T09:06:40.499Z,976
2017-11-23T09:07:49.482Z,984
2017-11-23T09:08:58.316Z,988
2017-11-23T09:10:07.145Z,996
2017-11-23T09:11:15.975Z,1000
2017-11-23T09:12:24.810Z,1004
2017-11-23T09:13:33.941Z,1008
2017-11-23T09:14:42.771Z,1012
2017-11-23T09:15:51.602Z,1024
2017-11-23T09:17:00.434Z,1032
2017-11-23T09:18:09.544Z,1040
2017-11-23T09:19:18.376Z,1052
2017-11-23T09:20:27.207Z,1056
2017-11-23T09:21:36.327Z,1068
2017-11-23T09:22:45.157Z,1080
2017-11-23T09:23:54.275Z,1084
2017-11-23T09:25:03.111Z,1092
2017-11-23T09:26:11.935Z,1104
2017-11-23T09:27:20.767Z,1116
2017-11-23T09:28:29.600Z,1140
2017-11-23T09:29:38.432Z,1196
2017-11-23T09:30:47.364Z,1220
2017-11-23T09:31:56.196Z,1324
2017-11-23T09:33:05.024Z,1456
2017-11-23T09:34:13.857Z,1564
2017-11-23T09:35:22.688Z,1728
2017-11-23T09:36:31.817Z,1756
2017-11-23T09:37:40.648Z,1484
2017-11-23T09:38:49.767Z,1196
2017-11-23T09:39:58.599Z,1192
2017-11-23T09:41:07.434Z,1188
2017-11-23T09:42:16.543Z,1184
2017-11-23T09:43:25.373Z,1172
2017-11-23T09:44:34.205Z,1168
2017-11-23T09:45:43.035Z,1180
2017-11-23T09:46:51.868Z,1180
2017-11-23T09:48:00.700Z,1156
2017-11-23T09:49:09.530Z,1160
2017-11-23T09:50:18.362Z,1180
2017-11-23T09:51:27.194Z,1220
2017-11-23T09:52:36.027Z,1216
2017-11-23T09:53:44.961Z,1160
2017-11-23T09:54:53.793Z,1156
2017-11-23T09:56:02.627Z,1180
2017-11-23T09:57:11.461Z,1420
2017-11-23T09:58:20.573Z,1864
2017-11-23T09:59:29.713Z,2252
2017-11-23T10:00:38.538Z,2320
2017-11-23T10:01:47.368Z,2608
2017-11-23T10:02:56.776Z,2608
2017-11-23T10:04:05.618Z,2648
2017-11-23T10:05:14.449Z,2732
2017-11-23T10:06:23.282Z,3004
2017-11-23T10:07:32.114Z,2840
2017-11-23T10:08:40.946Z,2836
2017-11-23T10:09:49.780Z,2768
2017-11-23T10:10:58.613Z,2496
2017-11-23T10:12:07.447Z,2144
2017-11-23T10:13:16.578Z,2156
2017-11-23T10:14:25.687Z,2704
2017-11-23T10:15:34.526Z,1856
2017-11-23T10:16:43.398Z,1616
2017-11-23T10:17:52.513Z,1536
2017-11-23T10:19:01.345Z,1180
2017-11-23T10:20:10.178Z,1128
2017-11-23T10:21:19.011Z,1340
2017-11-23T10:22:27.941Z,1828
2017-11-23T10:23:37.069Z,2816
2017-11-23T10:24:45.901Z,3788
2017-11-23T10:25:54.734Z,4108
2017-11-23T10:27:03.568Z,4324
2017-11-23T10:28:12.550Z,4412
2017-11-23T10:29:21.383Z,4052
2017-11-23T10:30:30.215Z,4164
2017-11-23T10:31:39.050Z,4268
2017-11-23T10:32:47.886Z,4080
2017-11-23T10:33:57.049Z,3540
2017-11-23T10:35:05.883Z,2884
2017-11-23T10:36:14.717Z,2476
2017-11-23T10:37:23.553Z,2036
2017-11-23T10:38:32.392Z,1948
2017-11-23T10:39:41.324Z,2636
2017-11-23T10:40:50.159Z,2696
2017-11-23T10:41:58.991Z,3264
2017-11-23T10:43:08.104Z,3688
2017-11-23T10:44:16.940Z,4212
2017-11-23T10:45:26.202Z,4032
2017-11-23T10:46:35.318Z,3276
2017-11-23T10:47:44.151Z,2652
2017-11-23T10:48:52.985Z,2996
2017-11-23T10:50:01.819Z,3484
2017-11-23T10:51:10.753Z,3272
2017-11-23T10:52:19.594Z,3744
2017-11-23T10:53:28.707Z,4032
2017-11-23T10:54:37.547Z,4996
2017-11-23T10:55:46.371Z,4448
2017-11-23T10:56:55.204Z,4492
2017-11-23T10:58:04.036Z,5132
2017-11-23T10:59:12.870Z,4956
2017-11-23T11:00:21.704Z,4612
2017-11-23T11:01:30.537Z,4492
2017-11-23T11:02:39.523Z,3604
2017-11-23T11:03:48.356Z,3484
2017-11-23T11:04:57.189Z,3024
2017-11-23T11:06:06.025Z,2148
2017-11-23T11:07:14.857Z,1756
2017-11-23T11:08:23.844Z,1616
2017-11-23T11:09:32.677Z,2612
2017-11-23T11:10:41.793Z,3804
2017-11-23T11:11:50.629Z,3624
2017-11-23T11:12:59.463Z,2492
2017-11-23T11:14:08.730Z,2256
2017-11-23T11:15:17.561Z,1996
2017-11-23T11:16:26.394Z,2020
2017-11-23T11:17:35.225Z,1588
2017-11-23T11:18:44.059Z,2020
2017-11-23T11:19:52.893Z,2068
2017-11-23T11:21:01.732Z,972
2017-11-23T11:22:10.560Z,1104
2017-11-23T11:23:19.392Z,956
2017-11-23T11:24:28.226Z,864
2017-11-23T11:25:37.111Z,900
2017-11-23T11:26:46.224Z,804
2017-11-23T11:27:55.059Z,1028
2017-11-23T11:29:03.893Z,1136
2017-11-23T11:30:13.125Z,1412
2017-11-23T11:31:22.163Z,1048
2017-11-23T11:32:30.992Z,1248
2017-11-23T11:33:39.825Z,1288
2017-11-23T11:34:48.941Z,1052
2017-11-23T11:35:57.769Z,912
2017-11-23T11:37:06.936Z,884
2017-11-23T11:38:15.779Z,896
2017-11-23T11:39:24.889Z,876
2017-11-23T11:40:33.723Z,1116
2017-11-23T11:41:42.555Z,1196
2017-11-23T11:42:51.439Z,900
2017-11-23T11:44:00.276Z,760
2017-11-23T11:45:09.110Z,664
2017-11-23T11:46:17.950Z,628
2017-11-23T11:47:26.775Z,712
2017-11-23T11:48:35.659Z,732
2017-11-23T11:49:44.497Z,740
2017-11-23T11:50:53.328Z,660
2017-11-23T11:52:02.168Z,676
2017-11-23T11:53:11.611Z,920
2017-11-23T11:54:20.595Z,852
2017-11-23T11:55:29.430Z,832
2017-11-23T11:56:38.263Z,896
2017-11-23T11:57:47.098Z,812
2017-11-23T11:58:56.007Z,832
2017-11-23T12:00:05.191Z,812
2017-11-23T12:01:14.028Z,856
2017-11-23T12:02:23.441Z,968
2017-11-23T12:03:32.989Z,1416
2017-11-23T12:04:42.191Z,1760
2017-11-23T12:05:51.061Z,1988
2017-11-23T12:07:00.182Z,2352
2017-11-23T12:08:09.604Z,2496
2017-11-23T12:09:18.546Z,1788
2017-11-23T12:10:28.797Z,1528
2017-11-23T12:11:37.668Z,1088
2017-11-23T12:12:47.399Z,804
2017-11-23T12:13:56.496Z,704
2017-11-23T12:15:05.357Z,628
2017-11-23T12:16:14.216Z,584
2017-11-23T12:17:23.274Z,636
2017-11-23T12:18:32.863Z,616
2017-11-23T12:19:41.785Z,668
2017-11-23T12:20:50.670Z,564
2017-11-23T12:21:59.876Z,676
2017-11-23T12:23:09.034Z,620
2017-11-23T12:24:18.069Z,556
2017-11-23T12:25:27.460Z,548
2017-11-23T12:26:36.757Z,588
2017-11-23T12:27:45.702Z,572
2017-11-23T12:28:54.879Z,884
2017-11-23T12:30:04.015Z,668
2017-11-23T12:31:13.203Z,724
2017-11-23T12:32:22.077Z,492
2017-11-23T12:33:31.213Z,556
2017-11-23T12:34:40.064Z,692
2017-11-23T12:35:48.900Z,776
2017-11-23T12:36:58.001Z,988
2017-11-23T12:38:07.061Z,1080
2017-11-23T12:39:15.948Z,1016
2017-11-23T12:40:25.010Z,976
2017-11-23T12:41:33.935Z,920
2017-11-23T12:42:42.888Z,912
2017-11-23T12:43:51.721Z,680
2017-11-23T12:45:00.559Z,400
2017-11-23T12:46:09.395Z,360
2017-11-23T12:47:18.228Z,420
2017-11-23T12:48:27.488Z,448
2017-11-23T12:49:36.325Z,552
2017-11-23T12:50:45.162Z,856
2017-11-23T12:51:53.995Z,1312
2017-11-23T12:53:02.830Z,2272
2017-11-23T12:54:11.764Z,1920
2017-11-23T12:55:20.598Z,2388
2017-11-23T12:56:29.433Z,2488
2017-11-23T12:57:38.265Z,1040
2017-11-23T12:58:47.096Z,1120
2017-11-23T12:59:56.080Z,1692
2017-11-23T13:01:04.916Z,1268
2017-11-23T13:02:13.750Z,1420
2017-11-23T13:03:22.587Z,1208
2017-11-23T13:04:31.699Z,748
2017-11-23T13:05:40.532Z,748
2017-11-23T13:06:49.365Z,936
2017-11-23T13:07:58.200Z,924
2017-11-23T13:09:07.032Z,1340
2017-11-23T13:10:15.865Z,1248
2017-11-23T13:11:24.752Z,1176
2017-11-23T13:12:33.861Z,1312
2017-11-23T13:13:42.700Z,1204
2017-11-23T13:14:51.532Z,1212
2017-11-23T13:16:00.367Z,1148
2017-11-23T13:17:09.705Z,996
2017-11-23T13:18:18.540Z,876
2017-11-23T13:19:27.398Z,752
2017-11-23T13:20:36.234Z,696
2017-11-23T13:21:45.066Z,652
2017-11-23T13:22:54.047Z,652
2017-11-23T13:24:02.880Z,472
2017-11-23T13:25:11.720Z,548
2017-11-23T13:26:20.553Z,424
2017-11-23T13:27:29.389Z,584
2017-11-23T13:28:38.276Z,764
2017-11-23T13:29:47.120Z,616
2017-11-23T13:30:55.963Z,696
2017-11-23T13:32:05.081Z,556
2017-11-23T13:33:14.192Z,504
2017-11-23T13:34:23.177Z,620
2017-11-23T13:35:32.018Z,568
2017-11-23T13:36:40.862Z,572
2017-11-23T13:37:49.697Z,716
2017-11-23T13:38:58.531Z,524
2017-11-23T13:40:07.364Z,448
2017-11-23T13:41:16.306Z,792
2017-11-23T13:42:25.132Z,996
2017-11-23T13:43:33.968Z,1204
2017-11-23T13:44:43.077Z,1500
2017-11-23T13:45:51.912Z,1068
2017-11-23T13:47:00.747Z,480
2017-11-23T13:48:09.580Z,296
2017-11-23T13:49:18.413Z,336
2017-11-23T13:50:27.248Z,272
2017-11-23T13:51:36.230Z,252
2017-11-23T13:52:45.348Z,296
2017-11-23T13:53:54.181Z,472
2017-11-23T13:55:03.014Z,296
2017-11-23T13:56:11.854Z,312
2017-11-23T13:57:20.836Z,344
2017-11-23T13:58:29.960Z,428
2017-11-23T13:59:39.071Z,352
2017-11-23T14:00:47.903Z,508
2017-11-23T14:01:56.751Z,356
2017-11-23T14:03:05.857Z,220
2017-11-23T14:04:14.691Z,228
2017-11-23T14:05:23.524Z,344
2017-11-23T14:06:32.358Z,420
2017-11-23T14:07:41.192Z,380
2017-11-23T14:08:50.075Z,276
2017-11-23T14:09:58.908Z,452
2017-11-23T14:11:07.845Z,460
2017-11-23T14:12:16.674Z,240
2017-11-23T14:13:25.505Z,204
2017-11-23T14:14:34.497Z,236
2017-11-23T14:15:43.608Z,252
2017-11-23T14:16:52.445Z,276
2017-11-23T14:18:01.553Z,280
2017-11-23T14:19:10.385Z,260
2017-11-23T14:20:19.274Z,288
2017-11-23T14:21:28.106Z,360
2017-11-23T14:22:36.935Z,668
2017-11-23T14:23:46.043Z,1028
2017-11-23T14:24:54.877Z,664
2017-11-23T14:26:03.997Z,504
2017-11-23T14:27:12.836Z,376
2017-11-23T14:28:21.953Z,284
2017-11-23T14:29:30.778Z,472
2017-11-23T14:30:39.612Z,320
2017-11-23T14:31:48.448Z,328
2017-11-23T14:32:57.287Z,452
2017-11-23T14:34:06.117Z,304
2017-11-23T14:35:14.950Z,360
2017-11-23T14:36:23.785Z,412
2017-11-23T14:37:32.867Z,412
2017-11-23T14:38:41.701Z,272
2017-11-23T14:39:50.536Z,164
2017-11-23T14:40:59.367Z,112
2017-11-23T14:42:08.201Z,216
2017-11-23T14:43:17.233Z,396
2017-11-23T14:44:26.063Z,404
2017-11-23T14:45:34.895Z,444
2017-11-23T14:46:43.728Z,388
2017-11-23T14:47:52.564Z,236
2017-11-23T14:49:01.699Z,212
2017-11-23T14:50:10.536Z,188
2017-11-23T14:51:19.370Z,168
2017-11-23T14:52:28.480Z,132
2017-11-23T14:53:37.312Z,104
2017-11-23T14:54:46.144Z,124
2017-11-23T14:55:54.980Z,188
2017-11-23T14:57:03.825Z,180
2017-11-23T14:58:12.645Z,216
2017-11-23T14:59:21.486Z,324
2017-11-23T15:00:30.312Z,352
2017-11-23T15:01:39.424Z,308
2017-11-23T15:02:48.550Z,284
2017-11-23T15:03:57.386Z,240
2017-11-23T15:05:06.222Z,196
2017-11-23T15:06:15.106Z,128
2017-11-23T15:07:23.938Z,100
2017-11-23T15:08:32.770Z,60
2017-11-23T15:09:41.604Z,64
2017-11-23T15:10:50.434Z,96
2017-11-23T15:11:59.318Z,72
2017-11-23T15:13:08.151Z,52
2017-11-23T15:14:16.985Z,44
2017-11-23T15:15:26.103Z,72
2017-11-23T15:16:34.935Z,68
2017-11-23T15:17:43.766Z,56
2017-11-23T15:18:52.599Z,40
2017-11-23T15:20:01.430Z,44
2017-11-23T15:21:10.552Z,28
2017-11-23T15:22:19.384Z,28
2017-11-23T15:23:28.367Z,28
2017-11-23T15:24:37.201Z,20
2017-11-23T15:25:46.312Z,24
2017-11-23T15:26:55.146Z,12
2017-11-23T15:28:03.978Z,20
2017-11-23T15:29:12.964Z,8
2017-11-23T15:30:21.795Z,8
2017-11-23T15:31:30.903Z,8
2017-11-23T15:32:39.736Z,8
2017-11-23T15:33:48.567Z,8
2017-11-23T15:34:57.551Z,4
2017-11-23T15:36:06.388Z,8
2017-11-23T15:37:15.499Z,4
2017-11-23T15:38:24.331Z,4
2017-11-23T15:39:33.164Z,4
2017-11-23T15:40:42.430Z,4
2017-11-23T15:41:51.262Z,4
2017-11-23T15:43:00.095Z,4
2017-11-23T15:44:08.928Z,4
2017-11-23T15:45:17.760Z,0
2017-11-23T15:46:26.643Z,0
2017-11-23T15:47:35.476Z,0
2017-11-23T15:48:44.313Z,0
2017-11-23T15:49:53.142Z,0
2017-11-23T15:51:01.972Z,0
2017-11-23T15:52:11.106Z,0
2017-11-23T15:53:19.938Z,0
2017-11-23T15:54:28.770Z,0
2017-11-23T15:55:37.887Z,0
2017-11-23T15:56:46.719Z,0
2017-11-23T15:57:55.851Z,0
2017-11-23T15:59:04.685Z,0
2017-11-23T16:00:13.818Z,0
2017-11-23T16:01:22.654Z,0
2017-11-23T16:02:31.767Z,0
2017-11-23T16:03:40.601Z,0
2017-11-23T16:04:49.718Z,0
2017-11-23T16:05:58.551Z,0
2017-11-23T16:07:07.384Z,0
2017-11-23T16:08:16.494Z,0
2017-11-23T16:09:25.425Z,0
2017-11-23T16:10:34.259Z,0
2017-11-23T16:11:43.094Z,0
2017-11-23T16:12:51.926Z,0
2017-11-23T16:14:00.759Z,0
2017-11-23T16:15:09.841Z,0
2017-11-23T16:16:18.670Z,0
2017-11-23T16:17:27.502Z,0
2017-11-23T16:18:36.612Z,0